Time,TemperatureF,DewpointF,PressureIn,WindDirection,WindDirectionDegrees,WindSpeedMPH,WindSpeedGustMPH,Humidity,HourlyPrecipIn,Conditions,Clouds,dailyrainin,SoftwareType,DateUTC
2013-05-21 00:01:00,33.0,24.0,-100.00,NNW,336,2.0,3.0,67,-99.99,,,-99.99,,2013-05-21 07:01:00,
2013-05-21 00:11:00,33.0,24.0,-100.00,NNW,330,2.0,4.0,68,-99.99,,,-99.99,,2013-05-21 07:11:00,
2013-05-21 00:21:00,33.0,24.0,-100.00,North,352,0.0,2.0,69,-99.99,,,-99.99,,2013-05-21 07:21:00,
2013-05-21 00:31:00,33.0,24.0,-100.00,North,354,1.0,3.0,68,-99.99,,,-99.99,,2013-05-21 07:31:00,
2013-05-21 00:41:00,33.0,24.0,-100.00,North,4,0.0,2.0,70,-99.99,,,-99.99,,2013-05-21 07:41:00,
2013-05-21 00:51:00,34.0,25.0,-100.00,NNE,25,2.0,3.0,70,-99.99,,,-99.99,,2013-05-21 07:51:00,
2013-05-21 01:01:00,34.0,25.0,-100.00,NNE,25,2.0,3.0,70,-99.99,,,-99.99,,2013-05-21 08:01:00,
2013-05-21 01:42:00,31.0,23.0,-100.00,NNW,339,1.0,3.0,73,-99.99,,,-99.99,,2013-05-21 08:42:00,
2013-05-21 02:01:00,30.0,23.0,-100.00,NNW,339,0.0,3.0,75,-99.99,,,-99.99,,2013-05-21 09:01:00,
2013-05-21 02:11:00,30.0,23.0,-100.00,North,6,1.0,2.0,74,-99.99,,,-99.99,,2013-05-21 09:11:00,
2013-05-21 02:21:00,30.0,23.0,-100.00,NNW,343,2.0,3.0,74,-99.99,,,-99.99,,2013-05-21 09:21:00,
2013-05-21 02:32:00,29.0,23.0,-100.00,NNW,335,2.0,3.0,75,-99.99,,,-99.99,,2013-05-21 09:32:00,
2013-05-21 03:02:00,29.0,22.0,-100.00,North,354,1.0,3.0,76,-99.99,,,-99.99,,2013-05-21 10:02:00,
2013-05-21 03:12:00,28.0,22.0,-100.00,North,349,1.0,2.0,77,-99.99,,,-99.99,,2013-05-21 10:12:00,
2013-05-21 03:22:00,28.0,22.0,-100.00,NNW,347,1.0,2.0,78,-99.99,,,-99.99,,2013-05-21 10:22:00,
2013-05-21 03:32:00,27.0,22.0,-100.00,NNW,342,1.0,2.0,79,-99.99,,,-99.99,,2013-05-21 10:32:00,
2013-05-21 03:42:00,28.0,22.0,-100.00,NNE,20,1.0,3.0,78,-99.99,,,-99.99,,2013-05-21 10:42:00,
2013-05-21 03:52:00,28.0,22.0,-100.00,North,1,1.0,3.0,79,-99.99,,,-99.99,,2013-05-21 10:52:00,
2013-05-21 04:02:00,27.0,21.0,-100.00,North,359,0.0,2.0,79,-99.99,,,-99.99,,2013-05-21 11:02:00,
2013-05-21 04:11:00,27.0,22.0,-100.00,North,8,0.0,2.0,80,-99.99,,,-99.99,,2013-05-21 11:11:00,
2013-05-21 04:21:00,27.0,22.0,-100.00,NNE,27,1.0,2.0,79,-99.99,,,-99.99,,2013-05-21 11:21:00,
2013-05-21 04:32:00,27.0,21.0,-100.00,North,356,1.0,2.0,79,-99.99,,,-99.99,,2013-05-21 11:32:00,
2013-05-21 04:41:00,27.0,22.0,-100.00,NNW,333,0.0,3.0,81,-99.99,,,-99.99,,2013-05-21 11:41:00,
2013-05-21 04:51:00,26.0,22.0,-100.00,NNE,20,1.0,2.0,82,-99.99,,,-99.99,,2013-05-21 11:51:00,
2013-05-21 05:01:00,27.0,22.0,-100.00,North,0,2.0,4.0,81,-99.99,,,-99.99,,2013-05-21 12:01:00,
2013-05-21 05:11:00,27.0,22.0,-100.00,North,11,1.0,3.0,81,-99.99,,,-99.99,,2013-05-21 12:11:00,
2013-05-21 05:21:00,27.0,21.0,-100.00,NNE,25,0.0,2.0,79,-99.99,,,-99.99,,2013-05-21 12:21:00,
2013-05-21 05:31:00,25.0,20.0,-100.00,North,352,0.0,2.0,81,-99.99,,,-99.99,,2013-05-21 12:31:00,
2013-05-21 05:41:00,25.0,20.0,-100.00,NNW,347,1.0,3.0,82,-99.99,,,-99.99,,2013-05-21 12:41:00,
2013-05-21 05:51:00,25.0,21.0,-100.00,NNW,339,0.0,2.0,82,-99.99,,,-99.99,,2013-05-21 12:51:00,
2013-05-21 06:01:00,26.0,21.0,-100.00,North,354,0.0,2.0,83,-99.99,,,-99.99,,2013-05-21 13:01:00,
2013-05-21 06:11:00,26.0,22.0,-100.00,NNE,24,1.0,3.0,83,-99.99,,,-99.99,,2013-05-21 13:11:00,
2013-05-21 06:22:00,26.0,22.0,-100.00,North,1,0.0,1.0,83,-99.99,,,-99.99,,2013-05-21 13:22:00,
2013-05-21 06:31:00,27.0,22.0,-100.00,North,-999,0.0,0.0,81,-99.99,,,-99.99,,2013-05-21 13:31:00,
2013-05-21 06:52:00,33.0,25.0,-100.00,East,80,1.0,3.0,72,-99.99,,,-99.99,,2013-05-21 13:52:00,
2013-05-21 07:01:00,38.0,27.0,-100.00,ENE,78,0.0,2.0,66,-99.99,,,-99.99,,2013-05-21 14:01:00,
2013-05-21 07:11:00,39.0,29.0,-100.00,NE,34,1.0,2.0,66,-99.99,,,-99.99,,2013-05-21 14:11:00,
2013-05-21 07:21:00,42.0,30.0,-100.00,North,357,0.0,2.0,63,-99.99,,,-99.99,,2013-05-21 14:21:00,
2013-05-21 07:31:00,45.0,31.0,-100.00,NNE,25,1.0,3.0,58,-99.99,,,-99.99,,2013-05-21 14:31:00,
2013-05-21 07:41:00,47.0,31.0,-100.00,NNE,17,0.0,3.0,54,-99.99,,,-99.99,,2013-05-21 14:41:00,
2013-05-21 07:51:00,48.0,31.0,-100.00,SW,219,3.0,9.0,52,-99.99,,,-99.99,,2013-05-21 14:51:00,
2013-05-21 08:01:00,48.0,31.0,-100.00,SW,217,6.0,10.0,51,-99.99,,,-99.99,,2013-05-21 15:01:00,
2013-05-21 08:11:00,49.0,31.0,-100.00,SW,222,7.0,11.0,50,-99.99,,,-99.99,,2013-05-21 15:11:00,
2013-05-21 08:21:00,49.0,31.0,-100.00,SW,222,7.0,11.0,50,-99.99,,,-99.99,,2013-05-21 15:21:00,
2013-05-21 08:42:00,52.0,31.0,-100.00,SW,220,9.0,14.0,45,-99.99,,,-99.99,,2013-05-21 15:42:00,
2013-05-21 08:52:00,52.0,31.0,-100.00,SW,220,9.0,14.0,45,-99.99,,,-99.99,,2013-05-21 15:52:00,
2013-05-21 09:02:00,51.0,31.0,-100.00,SW,216,9.0,13.0,45,-99.99,,,-99.99,,2013-05-21 16:02:00,
2013-05-21 09:12:00,53.0,31.0,-100.00,SW,217,8.0,15.0,43,-99.99,,,-99.99,,2013-05-21 16:12:00,
2013-05-21 09:23:00,55.0,26.0,-100.00,SSW,206,9.0,16.0,33,-99.99,,,-99.99,,2013-05-21 16:23:00,
2013-05-21 09:32:00,55.0,24.0,-100.00,South,184,13.0,26.0,30,-99.99,,,-99.99,,2013-05-21 16:32:00,
2013-05-21 09:42:00,55.0,24.0,-100.00,South,181,13.0,22.0,30,-99.99,,,-99.99,,2013-05-21 16:42:00,
2013-05-21 09:52:00,57.0,24.0,-100.00,South,182,12.0,22.0,28,-99.99,,,-99.99,,2013-05-21 16:52:00,
2013-05-21 10:02:00,57.0,24.0,-100.00,South,182,12.0,22.0,28,-99.99,,,-99.99,,2013-05-21 17:02:00,
2013-05-21 10:12:00,56.0,24.0,-100.00,SSW,193,13.0,26.0,29,-99.99,,,-99.99,,2013-05-21 17:12:00,
2013-05-21 10:23:00,57.0,24.0,-100.00,SSW,192,15.0,26.0,28,-99.99,,,-99.99,,2013-05-21 17:23:00,
2013-05-21 10:32:00,58.0,24.0,-100.00,South,182,13.0,22.0,27,-99.99,,,-99.99,,2013-05-21 17:32:00,
2013-05-21 10:43:00,59.0,24.0,-100.00,South,182,13.0,23.0,26,-99.99,,,-99.99,,2013-05-21 17:43:00,
2013-05-21 10:52:00,58.0,22.0,-100.00,South,184,14.0,24.0,24,-99.99,,,-99.99,,2013-05-21 17:52:00,
2013-05-21 11:01:00,58.0,22.0,-100.00,South,184,14.0,24.0,24,-99.99,,,-99.99,,2013-05-21 18:01:00,
2013-05-21 11:11:00,58.0,19.0,-100.00,South,189,13.0,22.0,22,-99.99,,,-99.99,,2013-05-21 18:11:00,
2013-05-21 11:22:00,59.0,23.0,-100.00,South,179,12.0,21.0,25,-99.99,,,-99.99,,2013-05-21 18:22:00,
2013-05-21 11:32:00,59.0,21.0,-100.00,South,184,13.0,23.0,23,-99.99,,,-99.99,,2013-05-21 18:32:00,
2013-05-21 11:42:00,58.0,20.0,-100.00,South,181,13.0,27.0,22,-99.99,,,-99.99,,2013-05-21 18:42:00,
2013-05-21 11:51:00,61.0,23.0,-100.00,South,179,14.0,28.0,23,-99.99,,,-99.99,,2013-05-21 18:51:00,
2013-05-21 12:01:00,59.0,22.0,-100.00,South,184,13.0,25.0,23,-99.99,,,-99.99,,2013-05-21 19:01:00,
2013-05-21 12:11:00,60.0,22.0,-100.00,South,182,14.0,28.0,23,-99.99,,,-99.99,,2013-05-21 19:11:00,
2013-05-21 12:21:00,63.0,24.0,-100.00,South,185,15.0,25.0,23,-99.99,,,-99.99,,2013-05-21 19:21:00,
2013-05-21 12:31:00,60.0,23.0,-100.00,South,182,15.0,26.0,24,-99.99,,,-99.99,,2013-05-21 19:31:00,
2013-05-21 12:41:00,60.0,23.0,-100.00,South,182,15.0,26.0,24,-99.99,,,-99.99,,2013-05-21 19:41:00,
2013-05-21 12:52:00,61.0,24.0,-100.00,South,179,13.0,23.0,24,-99.99,,,-99.99,,2013-05-21 19:52:00,
2013-05-21 13:03:00,61.0,23.0,-100.00,South,186,14.0,28.0,23,-99.99,,,-99.99,,2013-05-21 20:03:00,
2013-05-21 13:11:00,62.0,22.0,-100.00,South,188,14.0,26.0,21,-99.99,,,-99.99,,2013-05-21 20:11:00,
2013-05-21 13:22:00,62.0,22.0,-100.00,South,188,14.0,26.0,21,-99.99,,,-99.99,,2013-05-21 20:22:00,
2013-05-21 13:32:00,64.0,23.0,-100.00,South,186,17.0,28.0,21,-99.99,,,-99.99,,2013-05-21 20:32:00,
2013-05-21 13:42:00,64.0,23.0,-100.00,South,186,17.0,28.0,21,-99.99,,,-99.99,,2013-05-21 20:42:00,
2013-05-21 13:52:00,66.0,21.0,-100.00,SSE,161,15.0,27.0,18,-99.99,,,-99.99,,2013-05-21 20:52:00,
2013-05-21 14:01:00,66.0,21.0,-100.00,SSE,161,15.0,27.0,18,-99.99,,,-99.99,,2013-05-21 21:01:00,
2013-05-21 14:11:00,66.0,22.0,-100.00,SSE,157,16.0,32.0,19,-99.99,,,-99.99,,2013-05-21 21:11:00,
2013-05-21 14:21:00,66.0,21.0,-100.00,SSE,165,15.0,33.0,18,-99.99,,,-99.99,,2013-05-21 21:21:00,
2013-05-21 14:32:00,66.0,18.0,-100.00,SSE,168,15.0,32.0,16,-99.99,,,-99.99,,2013-05-21 21:32:00,
2013-05-21 14:43:00,66.0,20.0,-100.00,South,175,14.0,29.0,17,-99.99,,,-99.99,,2013-05-21 21:43:00,
2013-05-21 14:53:00,67.0,19.0,-100.00,South,179,14.0,27.0,16,-99.99,,,-99.99,,2013-05-21 21:53:00,
2013-05-21 15:02:00,66.0,22.0,-100.00,SSE,162,16.0,34.0,18,-99.99,,,-99.99,,2013-05-21 22:02:00,
2013-05-21 15:12:00,67.0,19.0,-100.00,SSE,167,14.0,30.0,16,-99.99,,,-99.99,,2013-05-21 22:12:00,
2013-05-21 15:22:00,67.0,19.0,-100.00,South,178,17.0,28.0,16,-99.99,,,-99.99,,2013-05-21 22:22:00,
2013-05-21 15:33:00,68.0,20.0,-100.00,South,182,13.0,29.0,16,-99.99,,,-99.99,,2013-05-21 22:33:00,
2013-05-21 15:42:00,68.0,20.0,-100.00,South,182,13.0,29.0,16,-99.99,,,-99.99,,2013-05-21 22:42:00,
2013-05-21 15:52:00,68.0,20.0,-100.00,South,174,15.0,29.0,16,-99.99,,,-99.99,,2013-05-21 22:52:00,
2013-05-21 16:02:00,68.0,20.0,-100.00,South,178,15.0,28.0,16,-99.99,,,-99.99,,2013-05-21 23:02:00,
2013-05-21 16:12:00,68.0,18.0,-100.00,South,188,18.0,30.0,15,-99.99,,,-99.99,,2013-05-21 23:12:00,
2013-05-21 16:22:00,67.0,19.0,-100.00,South,184,18.0,31.0,16,-99.99,,,-99.99,,2013-05-21 23:22:00,
2013-05-21 16:32:00,68.0,18.0,-100.00,South,182,17.0,34.0,15,-99.99,,,-99.99,,2013-05-21 23:32:00,
2013-05-21 16:42:00,69.0,18.0,-100.00,SSE,168,14.0,34.0,14,-99.99,,,-99.99,,2013-05-21 23:42:00,
2013-05-21 16:52:00,68.0,17.0,-100.00,South,174,17.0,32.0,14,-99.99,,,-99.99,,2013-05-21 23:52:00,
2013-05-21 17:01:00,68.0,17.0,-100.00,South,178,15.0,28.0,14,-99.99,,,-99.99,,2013-05-22 00:01:00,
2013-05-21 17:11:00,67.0,16.0,-100.00,South,171,16.0,31.0,14,-99.99,,,-99.99,,2013-05-22 00:11:00,
2013-05-21 17:21:00,67.0,16.0,-100.00,South,171,16.0,31.0,14,-99.99,,,-99.99,,2013-05-22 00:21:00,
2013-05-21 17:31:00,64.0,16.0,-100.00,South,178,16.0,30.0,15,-99.99,,,-99.99,,2013-05-22 00:31:00,
2013-05-21 17:41:00,64.0,16.0,-100.00,South,178,16.0,30.0,15,-99.99,,,-99.99,,2013-05-22 00:41:00,
2013-05-21 17:51:00,67.0,16.0,-100.00,South,174,15.0,27.0,14,-99.99,,,-99.99,,2013-05-22 00:51:00,
2013-05-21 18:01:00,67.0,16.0,-100.00,South,174,15.0,27.0,14,-99.99,,,-99.99,,2013-05-22 01:01:00,
2013-05-21 18:11:00,68.0,15.0,-100.00,South,174,15.0,31.0,13,-99.99,,,-99.99,,2013-05-22 01:11:00,
2013-05-21 18:21:00,66.0,15.0,-100.00,South,172,13.0,28.0,14,-99.99,,,-99.99,,2013-05-22 01:21:00,
2013-05-21 18:32:00,65.0,15.0,-100.00,South,182,14.0,27.0,14,-99.99,,,-99.99,,2013-05-22 01:32:00,
2013-05-21 18:41:00,65.0,15.0,-100.00,South,182,14.0,27.0,14,-99.99,,,-99.99,,2013-05-22 01:41:00,
2013-05-21 18:52:00,65.0,13.0,-100.00,South,186,15.0,28.0,13,-99.99,,,-99.99,,2013-05-22 01:52:00,
2013-05-21 19:01:00,65.0,13.0,-100.00,South,186,15.0,28.0,13,-99.99,,,-99.99,,2013-05-22 02:01:00,
2013-05-21 19:11:00,65.0,11.0,-100.00,South,189,16.0,32.0,12,-99.99,,,-99.99,,2013-05-22 02:11:00,
2013-05-21 19:21:00,65.0,13.0,-100.00,SSW,192,13.0,26.0,13,-99.99,,,-99.99,,2013-05-22 02:21:00,
2013-05-21 19:32:00,65.0,12.0,-100.00,South,188,16.0,28.0,12,-99.99,,,-99.99,,2013-05-22 02:32:00,
2013-05-21 19:40:00,62.0,12.0,-100.00,South,182,11.0,26.0,14,-99.99,,,-99.99,,2013-05-22 02:40:00,
2013-05-21 19:41:00,65.0,12.0,-100.00,South,188,16.0,28.0,12,-99.99,,,-99.99,,2013-05-22 02:41:00,
2013-05-21 19:51:00,65.0,11.0,-100.00,South,184,13.0,32.0,12,-99.99,,,-99.99,,2013-05-22 02:51:00,
2013-05-21 20:01:00,63.0,12.0,-100.00,South,181,14.0,32.0,13,-99.99,,,-99.99,,2013-05-22 03:01:00,
2013-05-21 20:11:00,63.0,12.0,-100.00,South,181,14.0,32.0,13,-99.99,,,-99.99,,2013-05-22 03:11:00,
2013-05-21 20:21:00,62.0,12.0,-100.00,South,182,11.0,26.0,14,-99.99,,,-99.99,,2013-05-22 03:21:00,
2013-05-21 20:33:00,62.0,12.0,-100.00,South,182,11.0,26.0,14,-99.99,,,-99.99,,2013-05-22 03:33:00,
2013-05-21 20:53:00,61.0,13.0,-100.00,South,174,13.0,28.0,15,-99.99,,,-99.99,,2013-05-22 03:53:00,
2013-05-21 21:03:00,61.0,13.0,-100.00,South,174,13.0,28.0,15,-99.99,,,-99.99,,2013-05-22 04:03:00,
2013-05-21 21:12:00,61.0,13.0,-100.00,South,174,13.0,28.0,15,-99.99,,,-99.99,,2013-05-22 04:12:00,
2013-05-21 21:22:00,60.0,14.0,-100.00,South,172,13.0,27.0,16,-99.99,,,-99.99,,2013-05-22 04:22:00,
2013-05-21 21:33:00,60.0,14.0,-100.00,South,174,14.0,25.0,16,-99.99,,,-99.99,,2013-05-22 04:33:00,
2013-05-21 21:42:00,60.0,12.0,-100.00,South,171,13.0,26.0,15,-99.99,,,-99.99,,2013-05-22 04:42:00,
2013-05-21 21:52:00,59.0,13.0,-100.00,South,171,15.0,32.0,16,-99.99,,,-99.99,,2013-05-22 04:52:00,
2013-05-21 22:02:00,59.0,13.0,-100.00,South,174,16.0,30.0,16,-99.99,,,-99.99,,2013-05-22 05:02:00,
2013-05-21 22:11:00,59.0,14.0,-100.00,South,172,15.0,28.0,17,-99.99,,,-99.99,,2013-05-22 05:11:00,
2013-05-21 22:21:00,59.0,14.0,-100.00,South,174,16.0,33.0,17,-99.99,,,-99.99,,2013-05-22 05:21:00,
2013-05-21 22:31:00,58.0,15.0,-100.00,South,174,13.0,27.0,18,-99.99,,,-99.99,,2013-05-22 05:31:00,
2013-05-21 22:42:00,58.0,15.0,-100.00,South,174,13.0,27.0,18,-99.99,,,-99.99,,2013-05-22 05:42:00,
2013-05-21 22:52:00,58.0,15.0,-100.00,South,175,14.0,27.0,18,-99.99,,,-99.99,,2013-05-22 05:52:00,
2013-05-21 23:01:00,58.0,15.0,-100.00,South,175,14.0,27.0,18,-99.99,,,-99.99,,2013-05-22 06:01:00,
2013-05-21 23:11:00,58.0,14.0,-100.00,South,172,13.0,25.0,18,-99.99,,,-99.99,,2013-05-22 06:11:00,
2013-05-21 23:21:00,57.0,15.0,-100.00,South,174,13.0,26.0,19,-99.99,,,-99.99,,2013-05-22 06:21:00,
2013-05-21 23:31:00,57.0,15.0,-100.00,South,174,13.0,24.0,19,-99.99,,,-99.99,,2013-05-22 06:31:00,
2013-05-21 23:42:00,57.0,15.0,-100.00,South,174,13.0,25.0,19,-99.99,,,-99.99,,2013-05-22 06:42:00,
2013-05-21 23:52:00,57.0,15.0,-100.00,South,169,14.0,28.0,19,-99.99,,,-99.99,,2013-05-22 06:52:00,